createdAt,value
2018-02-07T08:55:57.749Z,9.60
2018-02-07T08:58:26.182Z,10.00
2018-02-07T09:00:53.699Z,10.50
2018-02-07T09:03:21.951Z,10.60
2018-02-07T09:05:49.760Z,9.80
2018-02-07T09:08:17.695Z,10.00
2018-02-07T09:10:45.159Z,10.70
2018-02-07T09:13:13.775Z,10.40
2018-02-07T09:15:41.335Z,11.00
2018-02-07T09:18:09.639Z,11.40
2018-02-07T09:20:37.537Z,12.00
2018-02-07T09:23:05.007Z,12.30
2018-02-07T09:25:32.890Z,11.70
2018-02-07T09:28:00.660Z,11.30
2018-02-07T09:30:28.900Z,12.10
2018-02-07T09:32:56.410Z,12.00
2018-02-07T09:35:24.256Z,12.10
2018-02-07T09:37:52.515Z,11.40
2018-02-07T09:40:20.852Z,12.30
2018-02-07T09:42:49.499Z,12.30
2018-02-07T09:45:17.743Z,12.50
2018-02-07T09:47:45.251Z,12.80
2018-02-07T09:50:13.104Z,13.00
2018-02-07T09:52:40.604Z,12.70
2018-02-07T09:55:08.080Z,12.40
2018-02-07T09:57:35.879Z,13.00
2018-02-07T10:00:04.120Z,13.10
2018-02-07T10:02:32.532Z,13.30
2018-02-07T10:05:01.055Z,13.40
2018-02-07T10:07:28.576Z,13.50
2018-02-07T10:09:56.060Z,13.10
2018-02-07T10:12:24.412Z,12.50
2018-02-07T10:14:52.304Z,13.20
2018-02-07T10:17:20.756Z,12.30
2018-02-07T10:19:48.900Z,12.90
2018-02-07T10:22:17.146Z,12.50
2018-02-07T10:24:45.463Z,12.70
2018-02-07T10:27:17.274Z,11.50
2018-02-07T10:29:45.863Z,12.00
2018-02-07T10:32:13.364Z,12.60
2018-02-07T10:34:41.275Z,11.60
2018-02-07T10:37:10.267Z,11.80
2018-02-07T10:39:37.801Z,11.90
2018-02-07T10:44:35.166Z,11.40
2018-02-07T10:47:03.403Z,11.20
2018-02-07T10:49:31.614Z,10.40
2018-02-07T10:51:59.487Z,10.90
2018-02-07T10:54:28.124Z,11.20
2018-02-07T10:56:56.040Z,11.50
2018-02-07T10:59:23.930Z,11.10
2018-02-07T11:01:52.175Z,11.40
2018-02-07T11:04:21.575Z,10.70
2018-02-07T11:06:49.045Z,10.60
2018-02-07T11:22:44.348Z,8.80
2018-02-07T11:25:11.879Z,8.90
2018-02-07T11:27:39.363Z,9.00
2018-02-07T11:30:07.272Z,9.20
2018-02-07T11:32:34.739Z,9.00
2018-02-07T11:35:02.214Z,9.50
2018-02-07T11:37:29.964Z,9.40
2018-02-07T11:39:57.468Z,9.60
2018-02-07T11:42:25.341Z,10.00
2018-02-07T11:44:53.881Z,10.00
2018-02-07T11:47:22.155Z,9.90
2018-02-07T11:52:54.895Z,9.70
2018-02-07T11:55:22.391Z,9.60
2018-02-07T11:57:49.884Z,9.70
2018-02-07T12:00:17.692Z,9.30
2018-02-07T12:02:45.215Z,9.40
2018-02-07T12:05:12.706Z,9.60
2018-02-07T12:07:40.897Z,9.60
2018-02-07T12:10:08.376Z,9.60
2018-02-07T12:12:35.854Z,9.50
2018-02-07T12:15:03.650Z,9.40
2018-02-07T12:17:31.116Z,9.20
2018-02-07T12:19:58.615Z,9.10
